createdAt,value
2022-12-05T21:28:20.248Z,6.30
2022-12-05T21:30:51.968Z,6.20
2022-12-05T21:33:28.960Z,6.20
2022-12-05T21:35:56.855Z,6.20
2022-12-05T21:38:30.234Z,6.20
2022-12-05T21:41:06.622Z,6.10
2022-12-05T21:43:36.520Z,6.00
2022-12-05T21:46:11.286Z,6.00
2022-12-05T21:48:38.704Z,5.90
2022-12-05T21:51:08.695Z,5.80
2022-12-05T21:53:46.897Z,5.70
2022-12-05T21:56:19.152Z,5.70
2022-12-05T21:58:55.197Z,5.60
2022-12-05T22:01:25.473Z,5.60
2022-12-05T22:04:09.463Z,5.50
2022-12-05T22:06:36.431Z,5.50
2022-12-05T22:09:10.158Z,5.50
2022-12-05T22:11:37.396Z,5.30
2022-12-05T22:14:14.346Z,5.20
2022-12-05T22:16:41.561Z,5.30
2022-12-05T22:19:11.226Z,5.20
2022-12-05T22:21:45.147Z,5.20
2022-12-05T22:24:18.202Z,5.30
2022-12-05T22:26:45.592Z,5.20
2022-12-05T22:29:42.173Z,5.20
2022-12-05T22:32:20.336Z,5.30
2022-12-05T22:35:00.581Z,5.30
2022-12-05T22:37:45.035Z,5.20
2022-12-05T22:40:17.152Z,5.30
2022-12-05T22:42:53.595Z,5.20
2022-12-05T22:45:30.257Z,5.00
2022-12-05T22:47:57.527Z,4.90
2022-12-05T22:50:31.352Z,4.80
2022-12-05T22:53:11.498Z,4.70
2022-12-05T22:55:45.306Z,4.70
2022-12-05T22:58:19.362Z,4.60
2022-12-05T23:00:46.738Z,4.60
2022-12-05T23:03:23.579Z,4.50
2022-12-05T23:05:57.263Z,4.40
2022-12-05T23:08:24.308Z,4.40
2022-12-05T23:10:58.321Z,4.50
2022-12-05T23:13:25.298Z,4.60
2022-12-05T23:15:59.256Z,4.50
2022-12-05T23:18:26.323Z,4.60
2022-12-05T23:20:53.313Z,4.60
2022-12-05T23:23:27.206Z,4.70
2022-12-05T23:25:57.170Z,4.60
2022-12-05T23:28:31.186Z,4.50
2022-12-05T23:31:11.346Z,4.40
2022-12-05T23:33:39.213Z,4.40
2022-12-05T23:36:07.101Z,4.40
2022-12-05T23:38:42.153Z,4.30
2022-12-05T23:41:18.168Z,4.30
2022-12-05T23:43:52.242Z,4.40
2022-12-05T23:46:22.631Z,4.40
2022-12-05T23:48:56.270Z,4.40
2022-12-05T23:51:28.637Z,4.40
2022-12-05T23:54:07.246Z,4.40
